sensor_id;sensor_type;location;lat;lon;timestamp;pressure;altitude;pressure_sealevel;temperature;humidity
3254;BME280;1639;42.804;23.342;2023-02-21T00:02:11;74081.00;;;-148.52;56.43
3254;BME280;1639;42.804;23.342;2023-02-21T00:04:55;74093.41;;;-148.52;56.98
3254;BME280;1639;42.804;23.342;2023-02-21T00:07:39;74107.88;;;-148.52;57.21
3254;BME280;1639;42.804;23.342;2023-02-21T00:10:23;74105.81;;;-148.52;57.32
3254;BME280;1639;42.804;23.342;2023-02-21T00:13:07;74103.75;;;-148.52;57.25
3254;BME280;1639;42.804;23.342;2023-02-21T00:15:51;74089.28;;;-148.52;57.07
3254;BME280;1639;42.804;23.342;2023-02-21T00:18:36;74091.34;;;-148.52;56.97
3254;BME280;1639;42.804;23.342;2023-02-21T00:21:20;74066.50;;;-148.52;56.67
3254;BME280;1639;42.804;23.342;2023-02-21T00:24:05;74052.03;;;-148.52;56.33
3254;BME280;1639;42.804;23.342;2023-02-21T00:26:48;74062.38;;;-148.52;56.08
3254;BME280;1639;42.804;23.342;2023-02-21T00:29:32;74064.44;;;-148.52;56.49
3254;BME280;1639;42.804;23.342;2023-02-21T00:32:16;74083.06;;;-148.52;57.35
3254;BME280;1639;42.804;23.342;2023-02-21T00:35:00;74066.50;;;-148.52;57.21
3254;BME280;1639;42.804;23.342;2023-02-21T00:37:48;74056.16;;;-148.52;56.52
3254;BME280;1639;42.804;23.342;2023-02-21T00:40:32;74049.97;;;-148.52;56.69
3254;BME280;1639;42.804;23.342;2023-02-21T00:43:17;74047.88;;;-148.52;56.72
3254;BME280;1639;42.804;23.342;2023-02-21T00:46:00;74035.47;;;-148.52;56.50
3254;BME280;1639;42.804;23.342;2023-02-21T00:48:44;74031.34;;;-148.52;56.23
3254;BME280;1639;42.804;23.342;2023-02-21T00:51:28;74027.22;;;-148.52;56.45
3254;BME280;1639;42.804;23.342;2023-02-21T00:54:12;74021.00;;;-148.52;56.05
3254;BME280;1639;42.804;23.342;2023-02-21T00:56:56;74010.66;;;-148.52;56.15
3254;BME280;1639;42.804;23.342;2023-02-21T00:59:40;73998.25;;;-148.52;56.36
3254;BME280;1639;42.804;23.342;2023-02-21T01:02:24;73973.41;;;-148.52;55.49
3254;BME280;1639;42.804;23.342;2023-02-21T01:05:08;73971.34;;;-148.52;55.40
3254;BME280;1639;42.804;23.342;2023-02-21T01:07:52;73975.47;;;-148.52;55.18
3254;BME280;1639;42.804;23.342;2023-02-21T01:10:36;73961.00;;;-148.52;55.00
3254;BME280;1639;42.804;23.342;2023-02-21T01:13:20;73956.88;;;-148.52;55.16
3254;BME280;1639;42.804;23.342;2023-02-21T01:16:05;73969.28;;;-148.52;55.65
3254;BME280;1639;42.804;23.342;2023-02-21T01:18:50;73965.16;;;-148.52;55.95
3254;BME280;1639;42.804;23.342;2023-02-21T01:21:34;73977.56;;;-148.52;55.50
3254;BME280;1639;42.804;23.342;2023-02-21T01:24:17;73981.69;;;-148.52;55.99
3254;BME280;1639;42.804;23.342;2023-02-21T01:27:01;73975.47;;;-148.52;55.97
3254;BME280;1639;42.804;23.342;2023-02-21T01:29:46;73987.91;;;-148.52;56.14
3254;BME280;1639;42.804;23.342;2023-02-21T01:32:30;73977.56;;;-148.52;56.33
3254;BME280;1639;42.804;23.342;2023-02-21T01:35:14;73979.63;;;-148.52;56.38
3254;BME280;1639;42.804;23.342;2023-02-21T01:37:58;73987.91;;;-148.52;56.44
3254;BME280;1639;42.804;23.342;2023-02-21T01:40:42;73979.63;;;-148.52;56.48
3254;BME280;1639;42.804;23.342;2023-02-21T01:43:27;73969.28;;;-148.52;56.06
3254;BME280;1639;42.804;23.342;2023-02-21T01:46:13;73969.28;;;-148.52;55.92
3254;BME280;1639;42.804;23.342;2023-02-21T01:49:00;73963.06;;;-148.52;55.91
3254;BME280;1639;42.804;23.342;2023-02-21T01:51:45;73967.22;;;-148.52;56.01
3254;BME280;1639;42.804;23.342;2023-02-21T01:54:33;73950.66;;;-148.52;56.15
3254;BME280;1639;42.804;23.342;2023-02-21T01:57:19;73927.91;;;-148.52;55.87
3254;BME280;1639;42.804;23.342;2023-02-21T02:00:07;73938.25;;;-148.52;55.81
3254;BME280;1639;42.804;23.342;2023-02-21T02:02:56;73932.03;;;-148.52;55.95
3254;BME280;1639;42.804;23.342;2023-02-21T02:05:42;73929.97;;;-148.52;55.92
3254;BME280;1639;42.804;23.342;2023-02-21T02:08:29;73929.97;;;-148.52;56.28
3254;BME280;1639;42.804;23.342;2023-02-21T02:17:11;73915.50;;;-148.52;55.12
3254;BME280;1639;42.804;23.342;2023-02-21T02:28:32;73903.09;;;-148.52;55.08
3254;BME280;1639;42.804;23.342;2023-02-21T02:31:35;73907.22;;;-148.52;55.40
3254;BME280;1639;42.804;23.342;2023-02-21T02:42:18;73886.53;;;-148.52;55.36
3254;BME280;1639;42.804;23.342;2023-02-21T02:44:56;73896.88;;;-148.52;55.63
3254;BME280;1639;42.804;23.342;2023-02-21T02:47:29;73894.81;;;-148.52;55.91
3254;BME280;1639;42.804;23.342;2023-02-21T02:49:56;73892.75;;;-148.52;55.90
3254;BME280;1639;42.804;23.342;2023-02-21T02:52:23;73886.53;;;-148.52;55.67
3254;BME280;1639;42.804;23.342;2023-02-21T02:55:20;73882.41;;;-148.52;56.05
3254;BME280;1639;42.804;23.342;2023-02-21T02:57:47;73878.25;;;-148.52;55.86
3254;BME280;1639;42.804;23.342;2023-02-21T03:00:16;73876.19;;;-148.52;55.71
3254;BME280;1639;42.804;23.342;2023-02-21T03:03:15;73886.53;;;-148.52;55.65
3254;BME280;1639;42.804;23.342;2023-02-21T03:06:29;73880.31;;;-148.52;56.00
3254;BME280;1639;42.804;23.342;2023-02-21T03:11:40;73884.47;;;-148.52;55.52
3254;BME280;1639;42.804;23.342;2023-02-21T03:14:13;73876.19;;;-148.52;55.42
3254;BME280;1639;42.804;23.342;2023-02-21T03:17:00;73874.13;;;-148.52;55.16
3254;BME280;1639;42.804;23.342;2023-02-21T03:19:32;73859.63;;;-148.52;54.99
3254;BME280;1639;42.804;23.342;2023-02-21T03:22:01;73857.56;;;-148.52;54.68
3254;BME280;1639;42.804;23.342;2023-02-21T03:24:30;73857.56;;;-148.52;54.82
3254;BME280;1639;42.804;23.342;2023-02-21T03:26:59;73857.56;;;-148.52;54.60
3254;BME280;1639;42.804;23.342;2023-02-21T03:29:27;73863.78;;;-148.52;54.67
3254;BME280;1639;42.804;23.342;2023-02-21T03:32:04;73855.50;;;-148.52;54.37
3254;BME280;1639;42.804;23.342;2023-02-21T03:34:38;73867.91;;;-148.52;54.29
3254;BME280;1639;42.804;23.342;2023-02-21T03:37:06;73878.25;;;-148.52;54.35
3254;BME280;1639;42.804;23.342;2023-02-21T03:39:32;73878.25;;;-148.52;54.05
3254;BME280;1639;42.804;23.342;2023-02-21T03:41:58;73892.75;;;-148.52;54.60
3254;BME280;1639;42.804;23.342;2023-02-21T03:44:23;73903.09;;;-148.52;54.85
3254;BME280;1639;42.804;23.342;2023-02-21T03:46:48;73921.69;;;-148.52;55.27
3254;BME280;1639;42.804;23.342;2023-02-21T03:49:14;73940.31;;;-148.52;55.51
3254;BME280;1639;42.804;23.342;2023-02-21T03:51:39;73942.38;;;-148.52;55.50
3254;BME280;1639;42.804;23.342;2023-02-21T03:54:04;73948.59;;;-148.52;55.40
3254;BME280;1639;42.804;23.342;2023-02-21T03:56:30;73944.47;;;-148.52;55.32
3254;BME280;1639;42.804;23.342;2023-02-21T03:58:55;73948.59;;;-148.52;55.69
3254;BME280;1639;42.804;23.342;2023-02-21T04:01:20;73946.53;;;-148.52;55.12
3254;BME280;1639;42.804;23.342;2023-02-21T04:03:46;73952.72;;;-148.52;55.31
3254;BME280;1639;42.804;23.342;2023-02-21T04:06:11;73956.88;;;-148.52;55.61
3254;BME280;1639;42.804;23.342;2023-02-21T04:08:36;73965.16;;;-148.52;55.99
3254;BME280;1639;42.804;23.342;2023-02-21T04:11:02;73969.28;;;-148.52;55.92
3254;BME280;1639;42.804;23.342;2023-02-21T04:13:28;73969.28;;;-148.52;55.86
3254;BME280;1639;42.804;23.342;2023-02-21T04:15:53;73981.69;;;-148.52;56.06
3254;BME280;1639;42.804;23.342;2023-02-21T04:18:18;73989.97;;;-148.52;56.29
3254;BME280;1639;42.804;23.342;2023-02-21T04:20:44;73992.03;;;-148.52;56.48
3254;BME280;1639;42.804;23.342;2023-02-21T04:23:11;74000.31;;;-148.52;56.30
3254;BME280;1639;42.804;23.342;2023-02-21T04:25:37;73989.97;;;-148.52;55.70
3254;BME280;1639;42.804;23.342;2023-02-21T04:28:03;74002.38;;;-148.52;56.02
3254;BME280;1639;42.804;23.342;2023-02-21T04:30:28;74000.31;;;-148.52;55.73
3254;BME280;1639;42.804;23.342;2023-02-21T04:32:53;73998.25;;;-148.52;55.79
3254;BME280;1639;42.804;23.342;2023-02-21T04:35:19;74000.31;;;-148.52;56.08
3254;BME280;1639;42.804;23.342;2023-02-21T04:37:44;73998.25;;;-148.52;56.06
3254;BME280;1639;42.804;23.342;2023-02-21T04:40:10;74000.31;;;-148.52;56.05
3254;BME280;1639;42.804;23.342;2023-02-21T04:42:36;73981.69;;;-148.52;55.53
3254;BME280;1639;42.804;23.342;2023-02-21T04:45:01;73977.56;;;-148.52;55.31
3254;BME280;1639;42.804;23.342;2023-02-21T04:47:27;73965.16;;;-148.52;54.71
3254;BME280;1639;42.804;23.342;2023-02-21T04:49:52;73948.59;;;-148.52;55.17
3254;BME280;1639;42.804;23.342;2023-02-21T04:52:18;73938.25;;;-148.52;54.77
3254;BME280;1639;42.804;23.342;2023-02-21T04:54:47;73936.19;;;-148.52;54.03
3254;BME280;1639;42.804;23.342;2023-02-21T04:57:13;73936.19;;;-148.52;53.88
3254;BME280;1639;42.804;23.342;2023-02-21T04:59:39;73936.19;;;-148.52;53.93
3254;BME280;1639;42.804;23.342;2023-02-21T05:02:04;73919.63;;;-148.52;53.99
3254;BME280;1639;42.804;23.342;2023-02-21T05:04:30;73913.44;;;-148.52;53.49
3254;BME280;1639;42.804;23.342;2023-02-21T05:06:58;73915.50;;;-148.52;53.58
3254;BME280;1639;42.804;23.342;2023-02-21T05:09:23;73921.69;;;-148.52;53.96
3254;BME280;1639;42.804;23.342;2023-02-21T05:11:49;73919.63;;;-148.52;53.77
3254;BME280;1639;42.804;23.342;2023-02-21T05:14:14;73915.50;;;-148.52;53.73
3254;BME280;1639;42.804;23.342;2023-02-21T05:16:42;73911.34;;;-148.52;53.87
3254;BME280;1639;42.804;23.342;2023-02-21T05:19:07;73919.63;;;-148.52;53.67
3254;BME280;1639;42.804;23.342;2023-02-21T05:21:34;73915.50;;;-148.52;53.77
3254;BME280;1639;42.804;23.342;2023-02-21T05:24:03;73915.50;;;-148.52;53.59
3254;BME280;1639;42.804;23.342;2023-02-21T05:26:36;73911.34;;;-148.52;53.20
3254;BME280;1639;42.804;23.342;2023-02-21T05:29:02;73907.22;;;-148.52;53.01
3254;BME280;1639;42.804;23.342;2023-02-21T05:31:28;73903.09;;;-148.52;53.54
3254;BME280;1639;42.804;23.342;2023-02-21T05:33:53;73896.88;;;-148.52;53.29
3254;BME280;1639;42.804;23.342;2023-02-21T05:36:19;73888.59;;;-148.52;53.25
3254;BME280;1639;42.804;23.342;2023-02-21T05:38:46;73892.75;;;-148.52;53.21
3254;BME280;1639;42.804;23.342;2023-02-21T05:41:13;73869.97;;;-148.52;52.36
3254;BME280;1639;42.804;23.342;2023-02-21T05:43:38;73861.72;;;-148.52;52.38
3254;BME280;1639;42.804;23.342;2023-02-21T05:46:04;73857.56;;;-148.52;51.61
3254;BME280;1639;42.804;23.342;2023-02-21T05:48:30;73851.38;;;-148.52;51.90
3254;BME280;1639;42.804;23.342;2023-02-21T05:50:55;73857.56;;;-148.52;52.13
3254;BME280;1639;42.804;23.342;2023-02-21T05:53:20;73859.63;;;-148.52;52.09
3254;BME280;1639;42.804;23.342;2023-02-21T05:55:46;73869.97;;;-148.52;52.04
3254;BME280;1639;42.804;23.342;2023-02-21T05:58:11;73853.44;;;-148.52;52.41
3254;BME280;1639;42.804;23.342;2023-02-21T06:00:36;73832.75;;;-148.52;51.96
3254;BME280;1639;42.804;23.342;2023-02-21T06:03:02;73820.34;;;-148.52;52.46
3254;BME280;1639;42.804;23.342;2023-02-21T06:05:27;73812.06;;;-148.52;52.76
3254;BME280;1639;42.804;23.342;2023-02-21T06:07:53;73799.66;;;-148.52;52.18
3254;BME280;1639;42.804;23.342;2023-02-21T06:10:18;73791.38;;;-148.52;52.63
3254;BME280;1639;42.804;23.342;2023-02-21T06:12:44;73820.34;;;-148.52;52.67
3254;BME280;1639;42.804;23.342;2023-02-21T06:15:10;73822.41;;;-148.52;52.98
3254;BME280;1639;42.804;23.342;2023-02-21T06:17:37;73834.81;;;-148.52;53.60
3254;BME280;1639;42.804;23.342;2023-02-21T06:20:04;73812.06;;;-148.52;53.09
3254;BME280;1639;42.804;23.342;2023-02-21T06:22:30;73791.38;;;-148.52;53.31
3254;BME280;1639;42.804;23.342;2023-02-21T06:24:55;73766.56;;;-148.52;53.00
3254;BME280;1639;42.804;23.342;2023-02-21T06:27:20;73737.59;;;-148.52;51.58
3254;BME280;1639;42.804;23.342;2023-02-21T06:29:46;73698.28;;;-148.52;50.01
3254;BME280;1639;42.804;23.342;2023-02-21T06:32:11;73671.41;;;-148.52;48.89
3254;BME280;1639;42.804;23.342;2023-02-21T06:34:37;73650.72;;;-148.52;48.70
3254;BME280;1639;42.804;23.342;2023-02-21T06:37:02;73638.31;;;-148.52;48.73
3254;BME280;1639;42.804;23.342;2023-02-21T06:39:27;73617.63;;;-148.52;47.73
3254;BME280;1639;42.804;23.342;2023-02-21T06:41:53;73607.28;;;-148.52;47.42
3254;BME280;1639;42.804;23.342;2023-02-21T06:44:18;73601.06;;;-148.52;46.91
3254;BME280;1639;42.804;23.342;2023-02-21T06:46:44;73584.50;;;-148.52;46.21
3254;BME280;1639;42.804;23.342;2023-02-21T06:49:10;73574.16;;;-148.52;46.49
3254;BME280;1639;42.804;23.342;2023-02-21T06:51:39;73563.84;;;-148.52;45.36
3254;BME280;1639;42.804;23.342;2023-02-21T06:54:05;73563.84;;;-148.52;45.75
3254;BME280;1639;42.804;23.342;2023-02-21T06:56:32;73572.09;;;-148.52;45.87
3254;BME280;1639;42.804;23.342;2023-02-21T06:58:58;73543.16;;;-148.52;45.93
3254;BME280;1639;42.804;23.342;2023-02-21T07:01:28;73522.47;;;-148.52;45.35
3254;BME280;1639;42.804;23.342;2023-02-21T07:03:55;73493.50;;;-148.52;44.96
3254;BME280;1639;42.804;23.342;2023-02-21T07:06:21;73483.16;;;-148.52;44.24
3254;BME280;1639;42.804;23.342;2023-02-21T07:08:47;73479.03;;;-148.52;44.57
3254;BME280;1639;42.804;23.342;2023-02-21T07:11:13;73464.53;;;-148.52;43.82
3254;BME280;1639;42.804;23.342;2023-02-21T07:13:39;73431.44;;;-148.52;43.63
3254;BME280;1639;42.804;23.342;2023-02-21T07:16:05;73410.75;;;-148.52;43.45
3254;BME280;1639;42.804;23.342;2023-02-21T07:18:31;73390.09;;;-148.52;42.79
3254;BME280;1639;42.804;23.342;2023-02-21T07:20:56;73377.66;;;-148.52;42.47
3254;BME280;1639;42.804;23.342;2023-02-21T07:23:23;73338.38;;;-148.52;42.45
3254;BME280;1639;42.804;23.342;2023-02-21T07:25:48;73357.00;;;-148.52;41.54
3254;BME280;1639;42.804;23.342;2023-02-21T07:28:14;73352.84;;;-148.52;42.11
3254;BME280;1639;42.804;23.342;2023-02-21T07:30:40;73332.16;;;-148.52;41.81
3254;BME280;1639;42.804;23.342;2023-02-21T07:33:05;73313.56;;;-148.52;41.60
3254;BME280;1639;42.804;23.342;2023-02-21T07:35:30;73297.00;;;-148.52;41.03
3254;BME280;1639;42.804;23.342;2023-02-21T07:37:56;73288.72;;;-148.52;41.54
3254;BME280;1639;42.804;23.342;2023-02-21T07:40:21;73276.31;;;-148.52;41.53
3254;BME280;1639;42.804;23.342;2023-02-21T07:42:47;73268.03;;;-148.52;40.92
3254;BME280;1639;42.804;23.342;2023-02-21T07:45:14;73282.53;;;-148.52;40.95
3254;BME280;1639;42.804;23.342;2023-02-21T07:47:40;73313.56;;;-148.52;41.52
3254;BME280;1639;42.804;23.342;2023-02-21T07:50:07;73323.91;;;-148.52;41.77
3254;BME280;1639;42.804;23.342;2023-02-21T07:52:33;73313.56;;;-148.52;42.12
3254;BME280;1639;42.804;23.342;2023-02-21T07:54:58;73294.94;;;-148.52;42.35
3254;BME280;1639;42.804;23.342;2023-02-21T07:57:23;73282.53;;;-148.52;42.03
3254;BME280;1639;42.804;23.342;2023-02-21T07:59:49;73284.59;;;-148.52;41.65
3254;BME280;1639;42.804;23.342;2023-02-21T08:02:15;73301.13;;;-148.52;42.14
3254;BME280;1639;42.804;23.342;2023-02-21T08:04:40;73294.94;;;-148.52;42.46
3254;BME280;1639;42.804;23.342;2023-02-21T08:07:07;73294.94;;;-148.52;42.42
3254;BME280;1639;42.804;23.342;2023-02-21T08:09:33;73255.63;;;-148.52;41.78
3254;BME280;1639;42.804;23.342;2023-02-21T08:11:59;73228.75;;;-148.52;41.43
3254;BME280;1639;42.804;23.342;2023-02-21T08:14:24;73199.78;;;-148.52;40.99
3254;BME280;1639;42.804;23.342;2023-02-21T08:16:50;73189.44;;;-148.52;40.39
3254;BME280;1639;42.804;23.342;2023-02-21T08:19:15;73181.19;;;-148.52;40.27
3254;BME280;1639;42.804;23.342;2023-02-21T08:21:47;73154.28;;;-148.52;39.98
3254;BME280;1639;42.804;23.342;2023-02-21T08:24:14;73110.84;;;-148.52;39.38
3254;BME280;1639;42.804;23.342;2023-02-21T08:26:40;73075.69;;;-148.52;38.74
3254;BME280;1639;42.804;23.342;2023-02-21T08:29:07;73083.97;;;-148.52;38.80
3254;BME280;1639;42.804;23.342;2023-02-21T08:31:39;73092.25;;;-148.52;38.46
3254;BME280;1639;42.804;23.342;2023-02-21T08:34:06;73106.72;;;-148.52;38.40
3254;BME280;1639;42.804;23.342;2023-02-21T08:36:37;73127.41;;;-148.52;38.79
3254;BME280;1639;42.804;23.342;2023-02-21T08:39:03;73139.81;;;-148.52;38.93
3254;BME280;1639;42.804;23.342;2023-02-21T08:41:39;73131.53;;;-148.52;39.01
3254;BME280;1639;42.804;23.342;2023-02-21T08:44:07;73104.66;;;-148.52;38.82
3254;BME280;1639;42.804;23.342;2023-02-21T08:46:32;73088.09;;;-148.52;38.87
3254;BME280;1639;42.804;23.342;2023-02-21T08:48:58;73063.28;;;-148.52;38.61
3254;BME280;1639;42.804;23.342;2023-02-21T08:51:25;73063.28;;;-148.52;37.80
3254;BME280;1639;42.804;23.342;2023-02-21T08:53:51;73026.06;;;-148.52;37.67
3254;BME280;1639;42.804;23.342;2023-02-21T08:56:20;73009.50;;;-148.52;37.24
3254;BME280;1639;42.804;23.342;2023-02-21T08:58:46;72995.03;;;-148.52;37.27
3254;BME280;1639;42.804;23.342;2023-02-21T09:01:11;72972.28;;;-148.52;37.34
3254;BME280;1639;42.804;23.342;2023-02-21T09:03:37;72943.31;;;-148.52;36.88
3254;BME280;1639;42.804;23.342;2023-02-21T09:06:02;72922.66;;;-148.52;37.03
3254;BME280;1639;42.804;23.342;2023-02-21T09:08:28;72897.81;;;-148.52;36.55
3254;BME280;1639;42.804;23.342;2023-02-21T09:10:55;72858.53;;;-148.52;36.48
3254;BME280;1639;42.804;23.342;2023-02-21T09:13:25;72821.31;;;-148.52;36.01
3254;BME280;1639;42.804;23.342;2023-02-21T09:15:51;72773.75;;;-148.52;35.41
3254;BME280;1639;42.804;23.342;2023-02-21T09:18:16;72728.25;;;-148.52;35.14
3254;BME280;1639;42.804;23.342;2023-02-21T09:20:42;72717.91;;;-148.52;34.09
3254;BME280;1639;42.804;23.342;2023-02-21T09:23:08;72719.97;;;-148.52;33.87
3254;BME280;1639;42.804;23.342;2023-02-21T09:25:34;72713.75;;;-148.52;34.01
3254;BME280;1639;42.804;23.342;2023-02-21T09:27:59;72732.38;;;-148.52;34.00
3254;BME280;1639;42.804;23.342;2023-02-21T09:30:26;72703.44;;;-148.52;34.39
3254;BME280;1639;42.804;23.342;2023-02-21T09:32:54;72691.00;;;-148.52;33.63
3254;BME280;1639;42.804;23.342;2023-02-21T09:35:19;72664.13;;;-148.52;33.59
3254;BME280;1639;42.804;23.342;2023-02-21T09:37:45;72616.56;;;-148.52;33.16
3254;BME280;1639;42.804;23.342;2023-02-21T09:42:54;72622.78;;;-148.52;32.71
3254;BME280;1639;42.804;23.342;2023-02-21T09:45:22;72616.56;;;-148.52;32.54
3254;BME280;1639;42.804;23.342;2023-02-21T09:47:52;72610.38;;;-148.52;32.86
3254;BME280;1639;42.804;23.342;2023-02-21T09:50:24;72635.19;;;-148.52;33.37
3254;BME280;1639;42.804;23.342;2023-02-21T09:52:52;72653.78;;;-148.52;33.01
3254;BME280;1639;42.804;23.342;2023-02-21T09:55:30;72637.25;;;-148.52;32.69
3254;BME280;1639;42.804;23.342;2023-02-21T09:57:58;72631.03;;;-148.52;32.52
3254;BME280;1639;42.804;23.342;2023-02-21T10:00:31;72620.69;;;-148.52;32.75
3254;BME280;1639;42.804;23.342;2023-02-21T10:05:45;72587.63;;;-148.52;32.45
3254;BME280;1639;42.804;23.342;2023-02-21T10:11:02;72542.13;;;-148.52;31.92
3254;BME280;1639;42.804;23.342;2023-02-21T10:13:38;72531.78;;;-148.52;31.72
3254;BME280;1639;42.804;23.342;2023-02-21T10:21:30;72492.50;;;-148.52;31.19
3254;BME280;1639;42.804;23.342;2023-02-21T10:23:57;72488.34;;;-148.52;31.28
3254;BME280;1639;42.804;23.342;2023-02-21T10:26:37;72471.81;;;-148.52;31.18
3254;BME280;1639;42.804;23.342;2023-02-21T10:29:44;72459.41;;;-148.52;30.90
3254;BME280;1639;42.804;23.342;2023-02-21T10:32:10;72442.84;;;-148.52;31.25
3254;BME280;1639;42.804;23.342;2023-02-21T10:34:36;72430.44;;;-148.52;30.60
3254;BME280;1639;42.804;23.342;2023-02-21T10:42:54;72397.38;;;-148.52;31.08
3254;BME280;1639;42.804;23.342;2023-02-21T10:45:26;72382.88;;;-148.52;30.18
3254;BME280;1639;42.804;23.342;2023-02-21T10:48:05;72393.22;;;-148.52;30.49
3254;BME280;1639;42.804;23.342;2023-02-21T10:50:53;72403.56;;;-148.52;30.80
3254;BME280;1639;42.804;23.342;2023-02-21T10:53:30;72420.09;;;-148.52;30.10
3254;BME280;1639;42.804;23.342;2023-02-21T11:01:18;72387.03;;;-148.52;29.50
3254;BME280;1639;42.804;23.342;2023-02-21T11:03:54;72382.88;;;-148.52;29.76
3254;BME280;1639;42.804;23.342;2023-02-21T11:06:31;72345.66;;;-148.52;29.54
3254;BME280;1639;42.804;23.342;2023-02-21T11:08:58;72335.31;;;-148.52;29.14
3254;BME280;1639;42.804;23.342;2023-02-21T11:11:38;72339.47;;;-148.52;28.92
3254;BME280;1639;42.804;23.342;2023-02-21T11:14:23;72331.19;;;-148.52;29.04
3254;BME280;1639;42.804;23.342;2023-02-21T11:19:45;72287.75;;;-148.52;29.64
3254;BME280;1639;42.804;23.342;2023-02-21T11:22:12;72267.09;;;-148.52;28.78
3254;BME280;1639;42.804;23.342;2023-02-21T11:27:17;72265.03;;;-148.52;28.83
3254;BME280;1639;42.804;23.342;2023-02-21T11:29:44;72252.63;;;-148.52;28.63
3254;BME280;1639;42.804;23.342;2023-02-21T11:32:18;72240.22;;;-148.52;28.45
3254;BME280;1639;42.804;23.342;2023-02-21T11:34:44;72227.78;;;-148.52;28.03
3254;BME280;1639;42.804;23.342;2023-02-21T11:37:13;72221.59;;;-148.52;28.24
3254;BME280;1639;42.804;23.342;2023-02-21T11:39:39;72209.19;;;-148.52;28.26
3254;BME280;1639;42.804;23.342;2023-02-21T11:42:30;72211.25;;;-148.52;27.46
3254;BME280;1639;42.804;23.342;2023-02-21T11:45:18;72205.06;;;-148.52;27.98
3254;BME280;1639;42.804;23.342;2023-02-21T11:47:53;72203.00;;;-148.52;28.38
3254;BME280;1639;42.804;23.342;2023-02-21T11:50:35;72190.56;;;-148.52;27.55
3254;BME280;1639;42.804;23.342;2023-02-21T11:55:41;72192.66;;;-148.52;27.53
3254;BME280;1639;42.804;23.342;2023-02-21T11:58:47;72190.56;;;-148.52;27.45
3254;BME280;1639;42.804;23.342;2023-02-21T12:01:21;72194.72;;;-148.52;27.63
3254;BME280;1639;42.804;23.342;2023-02-21T12:07:03;72180.25;;;-148.52;27.51
3254;BME280;1639;42.804;23.342;2023-02-21T12:18:00;72174.03;;;-148.52;26.17
3254;BME280;1639;42.804;23.342;2023-02-21T12:23:27;72180.25;;;-148.52;25.66
3254;BME280;1639;42.804;23.342;2023-02-21T12:32:00;72188.50;;;-148.52;25.74
3254;BME280;1639;42.804;23.342;2023-02-21T12:35:01;72184.38;;;-148.52;25.42
3254;BME280;1639;42.804;23.342;2023-02-21T12:38:02;72171.97;;;-148.52;25.77
3254;BME280;1639;42.804;23.342;2023-02-21T12:41:02;72171.97;;;-148.52;25.25
3254;BME280;1639;42.804;23.342;2023-02-21T12:46:20;72174.03;;;-148.52;25.30
3254;BME280;1639;42.804;23.342;2023-02-21T12:49:10;72182.31;;;-148.52;25.34
3254;BME280;1639;42.804;23.342;2023-02-21T12:51:40;72169.91;;;-148.52;25.25
3254;BME280;1639;42.804;23.342;2023-02-21T12:54:35;72151.28;;;-148.52;25.45
3254;BME280;1639;42.804;23.342;2023-02-21T12:57:07;72151.28;;;-148.52;25.49
3254;BME280;1639;42.804;23.342;2023-02-21T13:05:13;72124.41;;;-148.52;25.58
3254;BME280;1639;42.804;23.342;2023-02-21T13:07:55;72138.88;;;-148.52;25.38
3254;BME280;1639;42.804;23.342;2023-02-21T13:10:27;72145.09;;;-148.52;25.51
3254;BME280;1639;42.804;23.342;2023-02-21T13:13:01;72138.88;;;-148.52;25.25
3254;BME280;1639;42.804;23.342;2023-02-21T13:15:30;72128.53;;;-148.52;26.06
3254;BME280;1639;42.804;23.342;2023-02-21T13:18:18;72120.28;;;-148.52;25.71
3254;BME280;1639;42.804;23.342;2023-02-21T13:28:54;72120.28;;;-148.52;25.49
3254;BME280;1639;42.804;23.342;2023-02-21T13:31:31;72116.13;;;-148.52;25.19
3254;BME280;1639;42.804;23.342;2023-02-21T13:34:01;72124.41;;;-148.52;25.26
3254;BME280;1639;42.804;23.342;2023-02-21T13:36:32;72122.34;;;-148.52;25.91
3254;BME280;1639;42.804;23.342;2023-02-21T13:39:20;72124.41;;;-148.52;25.64
3254;BME280;1639;42.804;23.342;2023-02-21T13:42:04;72128.53;;;-148.52;25.54
3254;BME280;1639;42.804;23.342;2023-02-21T13:47:04;72116.13;;;-148.52;25.52
3254;BME280;1639;42.804;23.342;2023-02-21T13:57:34;72114.06;;;-148.52;26.08
3254;BME280;1639;42.804;23.342;2023-02-21T14:08:18;72112.00;;;-148.52;25.76
3254;BME280;1639;42.804;23.342;2023-02-21T14:10:48;72107.88;;;-148.52;25.97
3254;BME280;1639;42.804;23.342;2023-02-21T14:16:44;72116.13;;;-148.52;25.97
3254;BME280;1639;42.804;23.342;2023-02-21T14:19:30;72126.47;;;-148.52;26.18
3254;BME280;1639;42.804;23.342;2023-02-21T14:21:58;72124.41;;;-148.52;26.07
3254;BME280;1639;42.804;23.342;2023-02-21T14:24:29;72124.41;;;-148.52;25.82
3254;BME280;1639;42.804;23.342;2023-02-21T14:27:03;72136.81;;;-148.52;25.99
3254;BME280;1639;42.804;23.342;2023-02-21T14:29:44;72134.75;;;-148.52;26.06
3254;BME280;1639;42.804;23.342;2023-02-21T14:34:39;72126.47;;;-148.52;25.98
3254;BME280;1639;42.804;23.342;2023-02-21T14:45:27;72151.28;;;-148.52;26.21
3254;BME280;1639;42.804;23.342;2023-02-21T14:54:07;72149.22;;;-148.52;26.08
3254;BME280;1639;42.804;23.342;2023-02-21T15:08:42;72178.16;;;-148.52;26.21
3254;BME280;1639;42.804;23.342;2023-02-21T15:13:40;72190.56;;;-148.52;26.66
3254;BME280;1639;42.804;23.342;2023-02-21T15:16:07;72188.50;;;-148.52;26.34
3254;BME280;1639;42.804;23.342;2023-02-21T15:18:36;72192.66;;;-148.52;25.92
3254;BME280;1639;42.804;23.342;2023-02-21T15:23:44;72207.13;;;-148.52;26.21
3254;BME280;1639;42.804;23.342;2023-02-21T15:26:18;72215.38;;;-148.52;26.43
3254;BME280;1639;42.804;23.342;2023-02-21T15:28:46;72219.53;;;-148.52;26.81
3254;BME280;1639;42.804;23.342;2023-02-21T15:31:26;72234.00;;;-148.52;26.82
3254;BME280;1639;42.804;23.342;2023-02-21T15:33:52;72244.34;;;-148.52;26.69
3254;BME280;1639;42.804;23.342;2023-02-21T15:36:20;72265.03;;;-148.52;26.72
3254;BME280;1639;42.804;23.342;2023-02-21T15:39:00;72269.16;;;-148.52;27.07
3254;BME280;1639;42.804;23.342;2023-02-21T15:41:38;72283.63;;;-148.52;27.44
3254;BME280;1639;42.804;23.342;2023-02-21T15:44:12;72298.09;;;-148.52;27.35
3254;BME280;1639;42.804;23.342;2023-02-21T15:49:37;72312.59;;;-148.52;27.63
3254;BME280;1639;42.804;23.342;2023-02-21T15:52:05;72327.06;;;-148.52;28.09